Orbital elements of COSMOS 1275 DEB
| Launched | 3 June 1981 |
| Flight ended | – |
| Launch site | Plesetsk Missile and Space Complex, Russia |
| Owner | Commonwealth of Independent States (former USSR) |
| NORAD ID | 17641 |
| Date fetched |
Epoch osculation |
Inc. [°] |
Ecc. | RA asc node [hr] |
Arg Peri. [°] |
Mean anom [°] |
Mean motion [rev/day] |
Abs. mag |
| Date fetched |
Epoch osculation |
Inc. [°] |
Ecc. | RA asc node [hr] |
Arg Peri. [°] |
Mean anom [°] |
Mean motion [rev/day] |
Abs. mag |
| 2026 May 03 17:57 | 2026 Apr 30 11:49:49 | 82.7476 | 0.00497 | 20.4951 | 173.4357 | 216.2603 | 14.23016 | – |
| 2026 May 02 17:57 | 2026 Apr 30 11:49:49 | 82.7476 | 0.00497 | 20.4951 | 173.4357 | 216.2603 | 14.23016 | – |
| 2026 May 01 17:56 | 2026 Apr 30 11:49:49 | 82.7476 | 0.00497 | 20.4951 | 173.4357 | 216.2603 | 14.23016 | – |
| 2026 Apr 30 17:56 | 2026 Apr 30 11:49:49 | 82.7476 | 0.00497 | 20.4951 | 173.4357 | 216.2603 | 14.23016 | – |
| 2026 Apr 29 17:57 | 2026 Apr 24 12:23:00 | 82.7482 | 0.00490 | 20.8236 | 191.5030 | 216.2603 | 14.23016 | – |
| 2026 Apr 28 17:56 | 2026 Apr 24 12:23:00 | 82.7482 | 0.00490 | 20.8236 | 191.5030 | 216.2603 | 14.23016 | – |
| 2026 Apr 27 17:58 | 2026 Apr 24 12:23:00 | 82.7482 | 0.00490 | 20.8236 | 191.5030 | 216.2603 | 14.23016 | – |
| 2026 Apr 26 17:58 | 2026 Apr 24 12:23:00 | 82.7482 | 0.00490 | 20.8236 | 191.5030 | 216.2603 | 14.23016 | – |
| 2026 Apr 25 17:58 | 2026 Apr 24 12:23:00 | 82.7482 | 0.00490 | 20.8236 | 191.5030 | 216.2603 | 14.23016 | – |
| 2026 Apr 24 17:59 | 2026 Apr 24 12:23:00 | 82.7482 | 0.00490 | 20.8236 | 191.5030 | 216.2603 | 14.23016 | – |
| 2026 Apr 23 17:57 | 2026 Apr 19 08:12:36 | 82.7482 | 0.00485 | 21.1081 | 207.4627 | 216.2603 | 14.23016 | – |
| 2026 Apr 22 17:57 | 2026 Apr 19 08:12:36 | 82.7482 | 0.00485 | 21.1081 | 207.4627 | 216.2603 | 14.23016 | – |
| 2026 Apr 21 17:57 | 2026 Apr 19 08:12:36 | 82.7482 | 0.00485 | 21.1081 | 207.4627 | 216.2603 | 14.23016 | – |
| 2026 Apr 20 17:57 | 2026 Apr 19 08:12:36 | 82.7482 | 0.00485 | 21.1081 | 207.4627 | 216.2603 | 14.23016 | – |
| 2026 Apr 19 17:58 | 2026 Apr 19 08:12:36 | 82.7482 | 0.00485 | 21.1081 | 207.4627 | 216.2603 | 14.23016 | – |
| 2026 Apr 18 17:56 | 2026 Apr 13 01:53:11 | 82.7498 | 0.00481 | 21.4524 | 227.0615 | 216.2603 | 14.23016 | – |
| 2026 Apr 16 17:57 | 2026 Apr 13 01:53:11 | 82.7498 | 0.00481 | 21.4524 | 227.0615 | 216.2603 | 14.23016 | – |
| 2026 Apr 14 17:57 | 2026 Apr 13 01:53:11 | 82.7498 | 0.00481 | 21.4524 | 227.0615 | 216.2603 | 14.23016 | – |
| 2026 Apr 13 17:57 | 2026 Apr 13 01:53:11 | 82.7498 | 0.00481 | 21.4524 | 227.0615 | 216.2603 | 14.23016 | – |
| 2026 Apr 12 17:57 | 2026 Apr 08 14:58:32 | 82.7498 | 0.00480 | 21.6971 | 241.1204 | 216.2603 | 14.23016 | – |
| 2026 Apr 11 17:57 | 2026 Apr 08 14:58:32 | 82.7498 | 0.00480 | 21.6971 | 241.1204 | 216.2603 | 14.23016 | – |
| 2026 Apr 10 17:58 | 2026 Apr 08 14:58:32 | 82.7498 | 0.00480 | 21.6971 | 241.1204 | 216.2603 | 14.23016 | – |
| 2026 Apr 09 18:01 | 2026 Apr 08 14:58:32 | 82.7498 | 0.00480 | 21.6971 | 241.1204 | 216.2603 | 14.23016 | – |
| 2026 Apr 08 17:57 | 2026 Apr 08 14:58:32 | 82.7498 | 0.00480 | 21.6971 | 241.1204 | 216.2603 | 14.23016 | – |
| 2026 Apr 07 17:57 | 2026 Apr 02 02:36:01 | 82.7505 | 0.00483 | 22.0552 | 261.6655 | 216.2603 | 14.23016 | – |
| 2026 Apr 06 17:57 | 2026 Apr 02 02:36:01 | 82.7505 | 0.00483 | 22.0552 | 261.6655 | 216.2603 | 14.23016 | – |